Time;durP1;ratioP1;P1;durP2;ratioP2;P2;SDS_P1;SDS_P2;PMS_P1;PMS_P2;Temp;Humidity;BMP_temperature;BMP_pressure;BME280_temperature;BME280_humidity;BME280_pressure;Samples;Min_cycle;Max_cycle;Signal;HPM_P1;HPM_P2
2022/09/02 00:01:46;;;;;;;4.68;1.55;;;14.60;99.90;;;;;;5016693;28;20065;-74
2022/09/02 00:04:20;;;;;;;4.75;2.03;;;14.60;99.90;;;;;;5034164;28;20022;-76
2022/09/02 00:06:50;;;;;;;5.22;1.63;;;14.60;99.90;;;;;;5034497;28;20063;-77
2022/09/02 00:09:23;;;;;;;3.83;2.08;;;14.60;99.90;;;;;;5034471;28;20028;-76
2022/09/02 00:11:52;;;;;;;6.75;2.10;;;14.60;99.90;;;;;;5033893;28;20509;-76
2022/09/02 00:14:30;;;;;;;7.07;2.22;;;14.60;99.90;;;;;;5033974;28;20382;-77
2022/09/02 00:16:59;;;;;;;5.95;1.90;;;14.70;99.90;;;;;;5033563;28;20092;-76
2022/09/02 00:19:28;;;;;;;9.40;1.85;;;14.70;99.90;;;;;;5034028;28;20029;-76
2022/09/02 00:21:57;;;;;;;3.55;1.63;;;14.70;99.90;;;;;;5033992;28;20044;-76
2022/09/02 00:24:26;;;;;;;6.50;1.95;;;14.70;99.90;;;;;;5033994;28;20068;-75
2022/09/02 00:26:53;;;;;;;7.25;2.13;;;14.70;99.90;;;;;;5034951;28;20516;-77
2022/09/02 00:29:21;;;;;;;5.53;1.77;;;14.80;99.90;;;;;;5035609;28;20343;-76
2022/09/02 00:31:49;;;;;;;4.60;2.58;;;14.80;99.90;;;;;;5035435;28;20057;-76
2022/09/02 00:34:17;;;;;;;6.70;2.15;;;14.80;99.90;;;;;;5035542;28;20029;-77
2022/09/02 00:36:45;;;;;;;3.17;1.75;;;14.80;99.90;;;;;;5035412;28;20069;-77
2022/09/02 00:39:13;;;;;;;5.82;1.52;;;14.90;99.90;;;;;;5035378;28;20052;-76
2022/09/02 00:41:42;;;;;;;4.05;1.52;;;14.90;99.90;;;;;;5035307;28;20049;-73
2022/09/02 00:44:14;;;;;;;5.28;2.42;;;14.90;99.90;;;;;;5035268;28;20364;-76
2022/09/02 00:46:42;;;;;;;4.55;2.08;;;14.90;99.90;;;;;;5035203;28;20033;-75
2022/09/02 00:49:34;;;;;;;8.85;2.40;;;15.00;99.90;;;;;;5035336;28;20021;-75
2022/09/02 00:52:19;;;;;;;5.75;2.50;;;14.90;99.90;;;;;;5035188;28;20030;-76
2022/09/02 00:55:07;;;;;;;8.20;2.17;;;14.90;99.90;;;;;;5035332;28;20060;-74
2022/09/02 00:57:39;;;;;;;6.60;2.13;;;15.00;99.90;;;;;;5034358;28;20014;-76
2022/09/02 01:00:19;;;;;;;6.90;1.92;;;15.00;99.90;;;;;;5035172;28;20029;-77
2022/09/02 01:02:53;;;;;;;3.13;1.55;;;15.10;99.90;;;;;;5035413;28;20033;-76
2022/09/02 01:05:23;;;;;;;3.58;1.50;;;15.10;99.90;;;;;;5034979;28;20049;-76
2022/09/02 01:07:53;;;;;;;11.27;2.13;;;15.10;99.90;;;;;;5034905;28;20030;-77
2022/09/02 01:10:25;;;;;;;5.25;2.00;;;15.20;99.90;;;;;;5035063;28;20021;-76
2022/09/02 01:13:18;;;;;;;6.50;2.13;;;15.30;99.90;;;;;;5017143;28;20462;-76
2022/09/02 01:16:03;;;;;;;5.88;1.80;;;15.30;99.90;;;;;;5034459;28;20413;-76
2022/09/02 01:18:34;;;;;;;4.22;1.35;;;15.30;99.90;;;;;;5034980;28;20052;-77
2022/09/02 01:21:02;;;;;;;6.43;2.05;;;15.40;99.90;;;;;;5034766;28;20042;-76
2022/09/02 01:23:31;;;;;;;6.63;1.90;;;15.50;99.90;;;;;;5034642;28;20057;-76
2022/09/02 01:25:59;;;;;;;6.65;2.15;;;15.50;99.90;;;;;;5034484;28;20116;-73
2022/09/02 01:28:27;;;;;;;4.72;1.40;;;15.50;99.90;;;;;;5034614;28;20071;-75
2022/09/02 01:30:55;;;;;;;7.63;1.85;;;15.50;99.90;;;;;;5034576;28;20424;-76
2022/09/02 01:33:24;;;;;;;6.32;1.90;;;15.60;99.90;;;;;;5034579;28;20028;-76
2022/09/02 01:35:52;;;;;;;6.15;1.70;;;15.60;99.90;;;;;;5034090;28;20466;-76
2022/09/02 01:38:20;;;;;;;4.68;1.52;;;15.60;99.90;;;;;;5034284;28;20489;-76
2022/09/02 01:40:48;;;;;;;6.20;2.00;;;15.60;99.90;;;;;;5034314;28;20079;-76
2022/09/02 01:43:22;;;;;;;10.98;2.22;;;15.70;99.90;;;;;;5034274;28;20491;-77
2022/09/02 01:45:53;;;;;;;20.95;2.55;;;15.70;99.90;;;;;;5034438;28;20018;-76
2022/09/02 01:48:21;;;;;;;5.45;1.75;;;15.70;99.90;;;;;;5034475;28;20112;-76
2022/09/02 01:50:55;;;;;;;10.90;1.92;;;15.70;99.90;;;;;;5033964;28;20026;-76
2022/09/02 01:53:24;;;;;;;6.60;1.80;;;15.70;99.90;;;;;;5034146;28;20463;-73
2022/09/02 01:55:52;;;;;;;5.03;1.77;;;15.70;99.90;;;;;;5034040;28;20040;-77
2022/09/02 01:58:20;;;;;;;8.85;1.67;;;15.70;99.90;;;;;;5034202;28;20075;-76
2022/09/02 02:00:48;;;;;;;8.55;1.98;;;15.70;99.90;;;;;;5033960;28;20038;-76
2022/09/02 02:03:16;;;;;;;6.50;1.50;;;15.70;99.90;;;;;;5033929;28;20025;-75
2022/09/02 02:05:44;;;;;;;9.18;1.48;;;15.60;99.90;;;;;;5033905;28;20058;-75
2022/09/02 02:08:11;;;;;;;6.45;1.83;;;15.50;99.90;;;;;;5033655;28;20378;-73
2022/09/02 02:10:41;;;;;;;6.97;1.30;;;15.50;99.90;;;;;;5033790;28;20032;-75
2022/09/02 02:13:09;;;;;;;8.38;2.28;;;15.50;99.90;;;;;;5033682;28;20390;-74
2022/09/02 02:15:39;;;;;;;9.25;1.80;;;15.40;99.90;;;;;;5033585;28;20030;-76
2022/09/02 02:18:07;;;;;;;8.40;1.80;;;15.40;99.90;;;;;;5033623;28;20051;-77
2022/09/02 02:20:36;;;;;;;3.83;1.60;;;15.40;99.90;;;;;;5033613;28;20022;-76
2022/09/02 02:23:06;;;;;;;5.43;1.92;;;15.50;99.90;;;;;;5033502;28;20390;-76
2022/09/02 02:25:34;;;;;;;6.68;2.28;;;15.50;99.90;;;;;;5033634;28;20048;-76
2022/09/02 02:28:02;;;;;;;5.88;1.85;;;15.50;99.90;;;;;;5033478;28;20021;-76
2022/09/02 02:30:30;;;;;;;5.95;1.42;;;15.50;99.90;;;;;;5033431;28;20025;-75
2022/09/02 02:32:58;;;;;;;6.70;1.40;;;15.50;99.90;;;;;;5033478;28;20022;-77
2022/09/02 02:35:26;;;;;;;10.30;1.92;;;15.60;99.90;;;;;;5033412;28;20493;-76
2022/09/02 02:37:54;;;;;;;10.05;2.00;;;15.50;99.90;;;;;;5033318;28;20028;-77
2022/09/02 02:40:24;;;;;;;6.03;1.90;;;15.50;99.90;;;;;;5033244;28;20032;-76
2022/09/02 02:42:52;;;;;;;4.47;1.60;;;15.50;99.90;;;;;;5033687;28;20112;-77
2022/09/02 02:45:21;;;;;;;7.50;2.47;;;15.50;99.90;;;;;;5033387;28;20029;-76
2022/09/02 02:47:50;;;;;;;5.88;1.77;;;15.40;99.90;;;;;;5033385;28;20032;-76
2022/09/02 02:50:20;;;;;;;5.50;2.03;;;15.40;99.90;;;;;;5015523;28;20424;-76
2022/09/02 02:52:48;;;;;;;4.47;1.90;;;15.30;99.90;;;;;;5033401;28;20543;-77
2022/09/02 02:55:17;;;;;;;7.97;2.40;;;15.30;99.90;;;;;;5033174;28;20065;-76
2022/09/02 02:57:46;;;;;;;6.55;1.48;;;15.40;99.90;;;;;;5033067;28;20084;-76
2022/09/02 03:00:17;;;;;;;5.13;1.40;;;15.30;99.90;;;;;;5033368;28;20044;-75
2022/09/02 03:02:45;;;;;;;8.23;2.55;;;15.30;99.90;;;;;;5015619;28;20030;-75
2022/09/02 03:05:15;;;;;;;8.80;2.60;;;15.30;99.90;;;;;;5033286;28;20378;-76
2022/09/02 03:07:43;;;;;;;7.57;1.98;;;15.30;99.90;;;;;;5033128;28;20083;-75
2022/09/02 03:10:12;;;;;;;10.15;2.28;;;15.30;99.90;;;;;;5033183;28;20018;-77
2022/09/02 03:12:40;;;;;;;5.47;1.42;;;15.30;99.90;;;;;;5033042;28;20055;-73
2022/09/02 03:15:10;;;;;;;6.22;2.03;;;15.20;99.90;;;;;;5033153;28;20033;-76
2022/09/02 03:17:47;;;;;;;9.60;2.08;;;15.10;99.90;;;;;;5032677;28;20060;-75
2022/09/02 03:20:16;;;;;;;4.85;1.58;;;15.00;99.90;;;;;;5033699;28;20029;-76
2022/09/02 03:22:46;;;;;;;3.97;1.45;;;15.00;99.90;;;;;;5036801;28;20041;-75
2022/09/02 03:25:17;;;;;;;13.52;2.00;;;14.90;99.90;;;;;;5036897;28;20014;-76
2022/09/02 03:27:45;;;;;;;11.13;1.88;;;14.80;99.90;;;;;;5036962;28;20060;-76
2022/09/02 03:30:16;;;;;;;6.72;1.60;;;14.80;99.90;;;;;;5036551;28;20060;-75
2022/09/02 03:32:43;;;;;;;6.65;2.17;;;14.80;99.90;;;;;;5035474;28;20440;-76
2022/09/02 03:35:17;;;;;;;3.00;1.30;;;14.80;99.90;;;;;;5036655;28;20021;-75
2022/09/02 03:37:46;;;;;;;5.93;1.63;;;14.80;99.90;;;;;;5036446;28;20144;-76
2022/09/02 03:40:16;;;;;;;7.20;1.95;;;14.90;99.90;;;;;;5018721;28;20486;-77
2022/09/02 03:42:44;;;;;;;3.78;1.20;;;14.90;99.90;;;;;;5036909;28;20038;-77
2022/09/02 03:45:15;;;;;;;6.80;1.70;;;14.90;99.90;;;;;;5036533;28;20026;-73
2022/09/02 03:47:49;;;;;;;10.23;2.50;;;14.90;99.90;;;;;;5036486;28;20105;-75
2022/09/02 03:50:19;;;;;;;7.07;2.03;;;14.80;99.90;;;;;;5036560;28;20512;-76
2022/09/02 03:52:46;;;;;;;4.25;1.45;;;14.80;99.90;;;;;;5036514;28;20025;-75
2022/09/02 03:55:14;;;;;;;5.28;1.15;;;14.70;99.90;;;;;;5036161;28;20064;-75
2022/09/02 03:57:42;;;;;;;4.32;1.33;;;14.60;99.90;;;;;;5036222;28;20029;-75
2022/09/02 04:00:10;;;;;;;3.63;1.08;;;14.50;99.90;;;;;;5036286;28;20056;-77
2022/09/02 04:02:38;;;;;;;7.55;1.90;;;14.50;99.90;;;;;;5036175;28;20033;-76
2022/09/02 04:05:06;;;;;;;6.75;1.50;;;14.50;99.90;;;;;;5036093;28;20470;-73
2022/09/02 04:07:33;;;;;;;3.75;1.80;;;14.50;99.90;;;;;;5036156;28;20104;-74
2022/09/02 04:10:01;;;;;;;2.72;1.25;;;14.50;99.90;;;;;;5035996;28;20026;-73
2022/09/02 04:12:28;;;;;;;8.13;1.40;;;14.50;99.90;;;;;;5036042;28;20068;-76
2022/09/02 04:14:56;;;;;;;3.53;1.17;;;14.50;99.90;;;;;;5035999;28;20045;-77
2022/09/02 04:17:24;;;;;;;8.90;1.83;;;14.50;99.90;;;;;;5035398;28;20037;-76
2022/09/02 04:19:53;;;;;;;8.30;1.92;;;14.50;99.90;;;;;;5034766;28;20033;-76
2022/09/02 04:22:20;;;;;;;7.78;1.52;;;14.50;99.90;;;;;;5018050;28;20484;-77
2022/09/02 04:24:48;;;;;;;10.50;1.52;;;14.50;99.90;;;;;;5035764;28;20025;-78
2022/09/02 04:27:15;;;;;;;6.45;1.63;;;14.50;99.90;;;;;;5035711;28;20021;-75
2022/09/02 04:29:43;;;;;;;3.22;1.17;;;14.50;99.90;;;;;;5035801;28;20021;-76
2022/09/02 04:32:10;;;;;;;4.05;1.33;;;14.50;99.90;;;;;;5034255;28;20025;-75
2022/09/02 04:34:37;;;;;;;6.72;0.93;;;14.50;99.90;;;;;;5035420;28;20034;-75
2022/09/02 04:37:05;;;;;;;6.80;1.50;;;14.50;99.90;;;;;;5035321;28;20070;-76
2022/09/02 04:39:32;;;;;;;2.83;1.40;;;14.50;99.90;;;;;;5035513;28;20022;-76
2022/09/02 04:42:00;;;;;;;5.72;1.20;;;14.40;99.90;;;;;;5035495;28;20029;-77
2022/09/02 04:44:27;;;;;;;6.22;1.13;;;14.50;99.90;;;;;;5035481;28;20076;-76
2022/09/02 04:46:54;;;;;;;4.97;1.38;;;14.50;99.90;;;;;;5017675;28;20030;-77
2022/09/02 04:49:22;;;;;;;3.80;1.30;;;14.50;99.90;;;;;;5035288;28;20021;-75
2022/09/02 04:51:49;;;;;;;6.50;1.48;;;14.50;99.90;;;;;;5035162;28;20036;-75
2022/09/02 04:54:17;;;;;;;3.67;1.60;;;14.50;99.90;;;;;;5035268;28;20025;-75
2022/09/02 04:56:44;;;;;;;3.75;0.90;;;14.40;99.90;;;;;;5034966;28;20028;-77
2022/09/02 04:59:11;;;;;;;5.75;1.85;;;14.40;99.90;;;;;;5035076;28;20022;-76
2022/09/02 05:01:40;;;;;;;9.15;1.63;;;14.40;99.90;;;;;;5034934;28;20524;-76
2022/09/02 05:04:08;;;;;;;7.18;1.30;;;14.30;99.90;;;;;;5034809;28;20179;-77
2022/09/02 05:06:38;;;;;;;6.95;1.67;;;14.20;99.90;;;;;;5034843;28;20029;-77
2022/09/02 05:09:07;;;;;;;7.43;1.50;;;14.20;99.90;;;;;;5034895;28;20025;-77
2022/09/02 05:11:37;;;;;;;7.50;1.58;;;14.10;99.90;;;;;;5034738;28;20355;-77
2022/09/02 05:14:06;;;;;;;2.05;1.30;;;14.00;99.90;;;;;;5034848;28;20025;-77
2022/09/02 05:16:39;;;;;;;6.35;1.30;;;14.00;99.90;;;;;;5034484;28;20120;-76
2022/09/02 05:19:12;;;;;;;4.97;1.38;;;13.90;99.90;;;;;;5034621;28;20033;-75
2022/09/02 05:21:41;;;;;;;4.63;1.35;;;13.90;99.90;;;;;;5034241;28;20065;-76
2022/09/02 05:24:09;;;;;;;5.20;1.15;;;13.90;99.90;;;;;;5034653;28;20474;-74
2022/09/02 05:26:43;;;;;;;8.63;1.25;;;14.00;99.90;;;;;;5034396;28;20038;-73
2022/09/02 05:29:12;;;;;;;3.97;1.58;;;13.90;99.90;;;;;;5034372;28;20097;-76
2022/09/02 05:31:40;;;;;;;5.18;1.13;;;13.90;99.90;;;;;;5034417;28;20112;-76
2022/09/02 05:34:08;;;;;;;6.70;1.13;;;13.90;99.90;;;;;;5034200;28;20423;-75
2022/09/02 05:36:36;;;;;;;7.22;1.25;;;13.90;99.90;;;;;;5034031;28;20032;-77
2022/09/02 05:39:05;;;;;;;3.80;1.08;;;13.90;99.90;;;;;;5034328;28;20096;-74
2022/09/02 05:41:32;;;;;;;5.25;1.85;;;13.70;99.90;;;;;;5034113;28;20037;-77
2022/09/02 05:44:01;;;;;;;4.07;0.80;;;13.60;99.90;;;;;;5033671;28;20018;-74
2022/09/02 05:46:29;;;;;;;3.58;1.05;;;13.60;99.90;;;;;;5034170;28;20026;-77
2022/09/02 05:49:07;;;;;;;3.60;0.70;;;13.50;99.90;;;;;;5034267;28;20026;-74
2022/09/02 05:51:43;;;;;;;2.95;0.80;;;13.40;99.90;;;;;;5034646;28;20028;-75
2022/09/02 05:54:13;;;;;;;3.50;1.25;;;13.40;99.90;;;;;;5034587;28;20022;-73
2022/09/02 05:56:43;;;;;;;6.10;1.05;;;13.40;99.90;;;;;;5033945;28;20509;-77
2022/09/02 05:59:11;;;;;;;8.30;1.33;;;13.40;99.90;;;;;;5034314;28;20108;-77
2022/09/02 06:01:39;;;;;;;4.90;0.80;;;13.30;99.90;;;;;;5034113;28;20065;-75
2022/09/02 06:04:06;;;;;;;4.05;0.90;;;13.30;99.90;;;;;;5034016;28;20029;-78
2022/09/02 06:06:37;;;;;;;3.55;0.93;;;13.30;99.90;;;;;;5033862;28;20030;-73
2022/09/02 06:09:07;;;;;;;3.35;0.80;;;13.20;99.90;;;;;;5033719;28;20025;-76
2022/09/02 06:11:38;;;;;;;2.97;1.05;;;13.20;99.90;;;;;;5033704;28;20021;-75
2022/09/02 06:14:07;;;;;;;4.45;1.10;;;13.20;99.90;;;;;;5033646;28;20040;-75
2022/09/02 06:16:35;;;;;;;5.75;1.80;;;13.20;99.90;;;;;;5033266;28;20095;-77
2022/09/02 06:19:03;;;;;;;7.72;1.20;;;13.20;99.90;;;;;;5032485;28;20054;-76
2022/09/02 06:21:31;;;;;;;3.53;1.13;;;13.20;99.90;;;;;;5033615;28;20034;-78
2022/09/02 06:23:59;;;;;;;6.70;1.05;;;13.20;99.90;;;;;;5033698;28;20049;-77
2022/09/02 06:26:27;;;;;;;1.80;0.93;;;13.20;99.90;;;;;;5033500;28;20087;-77
2022/09/02 06:28:54;;;;;;;6.97;1.40;;;13.20;99.90;;;;;;5033544;28;20408;-78
2022/09/02 06:31:22;;;;;;;6.80;1.48;;;13.20;99.90;;;;;;5033508;28;20025;-76
2022/09/02 06:33:53;;;;;;;2.20;0.75;;;13.10;99.90;;;;;;5033292;28;20052;-77
2022/09/02 06:36:23;;;;;;;4.57;1.35;;;13.10;99.90;;;;;;5033090;28;20521;-78
2022/09/02 06:38:52;;;;;;;6.20;1.35;;;13.20;99.90;;;;;;5033449;28;20025;-79
2022/09/02 06:41:27;;;;;;;6.43;1.42;;;13.10;99.90;;;;;;5033251;28;20028;-78
2022/09/02 06:43:59;;;;;;;12.23;2.27;;;13.10;99.90;;;;;;5033454;28;20026;-75
2022/09/02 06:46:30;;;;;;;7.82;2.53;;;13.10;99.90;;;;;;5033192;28;20108;-75
2022/09/02 06:48:58;;;;;;;4.65;1.42;;;13.10;99.90;;;;;;5033329;28;20025;-79
2022/09/02 06:51:30;;;;;;;8.88;1.40;;;13.10;99.90;;;;;;5033674;28;20100;-77
2022/09/02 06:53:58;;;;;;;4.80;1.20;;;13.10;99.90;;;;;;5033500;28;20043;-78
2022/09/02 06:56:26;;;;;;;3.40;1.20;;;13.10;99.90;;;;;;5018145;28;20026;-78
2022/09/02 06:58:54;;;;;;;12.95;1.42;;;13.10;99.90;;;;;;5037656;28;20028;-77
2022/09/02 07:01:27;;;;;;;8.23;1.27;;;13.10;99.90;;;;;;5037392;28;20478;-78
2022/09/02 07:06:42;;;;;;;3.80;1.17;;;13.20;99.90;;;;;;5037227;28;20021;-78
2022/09/02 07:09:12;;;;;;;7.57;1.48;;;13.10;99.90;;;;;;5037128;28;20064;-78
2022/09/02 07:11:39;;;;;;;5.00;1.67;;;13.10;99.90;;;;;;5019415;28;20033;-77
2022/09/02 07:14:07;;;;;;;7.03;2.25;;;13.20;99.90;;;;;;5037172;28;20040;-74
2022/09/02 07:16:41;;;;;;;5.85;1.10;;;13.10;99.90;;;;;;5036691;28;20083;-79
2022/09/02 07:19:09;;;;;;;7.28;2.28;;;13.10;99.90;;;;;;5037174;28;20021;-78
2022/09/02 07:21:39;;;;;;;8.35;1.92;;;13.10;99.90;;;;;;5036729;28;20040;-75
2022/09/02 07:24:08;;;;;;;8.23;1.60;;;13.10;99.90;;;;;;5037124;28;20415;-78
2022/09/02 07:26:35;;;;;;;6.38;1.58;;;13.10;99.90;;;;;;5036903;28;20072;-73
2022/09/02 07:29:07;;;;;;;12.52;1.95;;;13.10;99.90;;;;;;5037069;28;20025;-78
2022/09/02 07:31:40;;;;;;;4.43;1.88;;;13.10;99.90;;;;;;5035467;28;20044;-74
2022/09/02 07:34:08;;;;;;;8.35;1.88;;;13.20;99.90;;;;;;5036859;28;20026;-74
2022/09/02 07:36:37;;;;;;;11.20;1.67;;;13.20;99.90;;;;;;5018620;28;20177;-73
2022/09/02 07:39:06;;;;;;;7.03;1.60;;;13.20;99.90;;;;;;5036521;28;20055;-73
2022/09/02 07:41:34;;;;;;;6.28;1.65;;;13.20;99.90;;;;;;5036544;28;20475;-74
2022/09/02 07:44:02;;;;;;;10.23;1.45;;;13.10;99.90;;;;;;5036494;28;20437;-72
2022/09/02 07:46:30;;;;;;;11.38;2.00;;;13.10;99.90;;;;;;5036039;28;20022;-76
2022/09/02 07:49:06;;;;;;;6.15;1.85;;;13.10;99.90;;;;;;5043795;28;20035;-77
2022/09/02 07:51:34;;;;;;;11.00;2.03;;;13.10;99.90;;;;;;5034534;28;20021;-77
2022/09/02 07:54:02;;;;;;;9.25;2.20;;;13.10;99.90;;;;;;5046479;28;20111;-75
2022/09/02 07:56:29;;;;;;;7.32;2.00;;;13.10;99.90;;;;;;5027314;28;20036;-78
2022/09/02 07:58:57;;;;;;;10.73;1.90;;;13.10;99.90;;;;;;5044955;28;20440;-79
2022/09/02 08:01:24;;;;;;;7.40;1.35;;;13.10;99.90;;;;;;5046660;28;20057;-76
2022/09/02 08:03:52;;;;;;;7.93;1.80;;;13.00;99.90;;;;;;5027556;28;20462;-77
2022/09/02 08:06:22;;;;;;;7.97;1.88;;;13.10;99.90;;;;;;5026419;28;20025;-75
2022/09/02 08:08:49;;;;;;;12.75;1.83;;;13.10;99.90;;;;;;5045066;28;20041;-77
2022/09/02 08:11:17;;;;;;;9.32;1.67;;;13.10;99.90;;;;;;5048812;28;20107;-78
2022/09/02 08:13:44;;;;;;;8.68;1.83;;;13.10;99.90;;;;;;5052968;28;20083;-77
2022/09/02 08:16:12;;;;;;;7.80;2.25;;;13.10;99.90;;;;;;5052952;28;20486;-75
2022/09/02 08:18:39;;;;;;;9.27;2.25;;;13.10;99.90;;;;;;5051904;28;20028;-76
2022/09/02 08:21:07;;;;;;;7.38;1.95;;;13.10;99.90;;;;;;5052728;28;20397;-77
2022/09/02 08:23:34;;;;;;;12.50;2.20;;;13.10;99.90;;;;;;5053298;28;20025;-76
2022/09/02 08:26:04;;;;;;;11.93;2.03;;;13.10;99.90;;;;;;5051821;28;20040;-73
2022/09/02 08:28:31;;;;;;;13.77;3.05;;;13.10;99.90;;;;;;5053435;28;21103;-77
2022/09/02 08:30:59;;;;;;;15.93;2.83;;;13.10;99.90;;;;;;5026219;28;20458;-79
2022/09/02 08:33:26;;;;;;;11.85;2.42;;;13.10;99.90;;;;;;5052792;28;20025;-77
2022/09/02 08:35:53;;;;;;;13.02;2.60;;;13.00;99.90;;;;;;5052456;28;20021;-76
2022/09/02 08:38:21;;;;;;;10.27;2.60;;;13.00;99.90;;;;;;5053416;28;20048;-77
2022/09/02 08:40:50;;;;;;;18.30;3.50;;;13.00;99.90;;;;;;5052242;28;20018;-77
2022/09/02 08:43:25;;;;;;;16.58;3.13;;;13.00;99.90;;;;;;5051733;28;20032;-77
2022/09/02 08:45:57;;;;;;;14.65;2.88;;;12.90;99.90;;;;;;5053111;28;20029;-77
2022/09/02 08:48:27;;;;;;;10.10;2.70;;;12.90;99.90;;;;;;5045622;28;20048;-80
2022/09/02 08:51:03;;;;;;;10.65;2.97;;;12.90;99.90;;;;;;5051972;28;20025;-76
2022/09/02 08:53:37;;;;;;;7.80;2.83;;;12.90;99.90;;;;;;5048911;28;20020;-78
2022/09/02 08:56:08;;;;;;;10.20;2.75;;;12.90;99.90;;;;;;5033653;28;20366;-76
2022/09/02 08:58:46;;;;;;;8.93;2.58;;;12.90;99.90;;;;;;5051616;28;20359;-77
2022/09/02 09:01:31;;;;;;;13.63;3.00;;;12.90;99.90;;;;;;5052140;28;20021;-73
2022/09/02 09:04:29;;;;;;;12.55;2.25;;;12.90;99.90;;;;;;5052816;28;20020;-76
2022/09/02 09:07:22;;;;;;;11.85;2.45;;;13.00;99.90;;;;;;5049650;28;20017;-75
2022/09/02 09:10:28;;;;;;;12.60;2.20;;;12.90;99.90;;;;;;5047832;28;20044;-75
2022/09/02 09:13:16;;;;;;;11.13;2.85;;;12.90;99.90;;;;;;5047083;28;20074;-76
2022/09/02 09:16:03;;;;;;;11.32;2.88;;;12.90;99.90;;;;;;5053244;28;20013;-76
2022/09/02 09:19:01;;;;;;;15.75;3.38;;;12.90;99.90;;;;;;5052067;28;20049;-76
2022/09/02 09:21:34;;;;;;;10.75;2.88;;;12.90;99.90;;;;;;5042381;28;20037;-74
2022/09/02 09:24:06;;;;;;;14.85;2.95;;;12.90;99.90;;;;;;5053896;28;20066;-74
2022/09/02 09:26:39;;;;;;;12.80;3.10;;;12.90;99.90;;;;;;5053575;28;20032;-75
2022/09/02 09:29:07;;;;;;;7.25;2.25;;;12.90;99.90;;;;;;5051735;28;20029;-76
2022/09/02 09:31:36;;;;;;;18.27;4.40;;;12.80;99.90;;;;;;5052775;28;20029;-76
2022/09/02 09:34:10;;;;;;;12.07;3.53;;;12.90;99.90;;;;;;5050347;28;20025;-73
2022/09/02 09:36:41;;;;;;;19.00;3.60;;;12.90;99.90;;;;;;5047507;28;20116;-74
2022/09/02 09:39:31;;;;;;;14.20;3.58;;;12.80;99.90;;;;;;5048974;28;20028;-77
2022/09/02 09:42:28;;;;;;;9.95;2.50;;;12.80;99.90;;;;;;5021861;28;20037;-75
2022/09/02 09:44:56;;;;;;;13.60;2.78;;;12.80;99.90;;;;;;5047903;28;20021;-73
2022/09/02 09:47:25;;;;;;;9.35;2.45;;;12.70;99.90;;;;;;5051908;28;20025;-77
2022/09/02 09:50:16;;;;;;;12.90;3.65;;;12.60;99.90;;;;;;5051904;28;20017;-77
2022/09/02 09:52:44;;;;;;;10.70;2.35;;;12.50;99.90;;;;;;5050457;28;20020;-73
2022/09/02 09:55:18;;;;;;;9.27;2.67;;;12.50;99.90;;;;;;5053763;28;20028;-73
2022/09/02 09:57:48;;;;;;;17.83;4.20;;;12.40;99.90;;;;;;5053005;28;20025;-76
2022/09/02 10:00:20;;;;;;;20.23;3.10;;;12.30;99.90;;;;;;5051588;28;20360;-72
2022/09/02 10:02:59;;;;;;;11.35;2.97;;;12.20;99.90;;;;;;5051303;28;20082;-74
2022/09/02 10:05:38;;;;;;;13.20;3.10;;;12.30;99.90;;;;;;5051585;28;20025;-74
2022/09/02 10:08:23;;;;;;;14.68;4.30;;;12.20;99.90;;;;;;5033332;28;20033;-75
2022/09/02 10:11:02;;;;;;;11.70;3.15;;;12.20;99.90;;;;;;5053077;28;20147;-76
2022/09/02 10:13:33;;;;;;;22.63;4.22;;;12.20;99.90;;;;;;5052296;28;20463;-73
2022/09/02 10:16:10;;;;;;;12.30;3.60;;;12.10;99.90;;;;;;5050969;28;20027;-75
2022/09/02 10:18:58;;;;;;;13.25;3.10;;;12.10;99.90;;;;;;5032909;28;20547;-74
2022/09/02 10:21:35;;;;;;;21.30;4.55;;;12.20;99.90;;;;;;5052018;28;20389;-74
2022/09/02 10:24:08;;;;;;;12.43;3.22;;;12.20;99.90;;;;;;5050971;28;20024;-75
2022/09/02 10:26:48;;;;;;;19.70;3.00;;;12.20;99.90;;;;;;5052734;28;20075;-76
2022/09/02 10:29:31;;;;;;;13.07;2.95;;;12.30;99.90;;;;;;5041958;28;20025;-74
2022/09/02 10:32:01;;;;;;;12.93;3.80;;;12.20;99.90;;;;;;5046027;28;20028;-77
2022/09/02 10:34:47;;;;;;;10.15;2.45;;;12.20;99.90;;;;;;5052964;28;20009;-74
2022/09/02 10:37:22;;;;;;;16.20;2.45;;;12.30;99.90;;;;;;5052026;28;20542;-76
2022/09/02 10:40:11;;;;;;;12.05;2.70;;;12.30;99.90;;;;;;5050049;28;20438;-77
2022/09/02 10:43:09;;;;;;;13.43;2.17;;;12.30;99.90;;;;;;5047040;28;20044;-78
2022/09/02 10:45:47;;;;;;;12.98;2.70;;;12.40;99.90;;;;;;5049310;28;20414;-76
2022/09/02 10:48:32;;;;;;;11.82;2.78;;;12.40;99.90;;;;;;5051990;28;20036;-77
2022/09/02 10:51:23;;;;;;;18.30;2.88;;;12.40;99.90;;;;;;5052747;28;20017;-76
2022/09/02 10:54:13;;;;;;;10.10;2.30;;;12.50;99.90;;;;;;5052269;28;20032;-75
2022/09/02 10:56:52;;;;;;;12.07;2.70;;;12.50;99.90;;;;;;5050249;28;20025;-74
2022/09/02 10:59:56;;;;;;;11.60;2.40;;;12.50;99.90;;;;;;5051142;28;20021;-74
2022/09/02 11:02:41;;;;;;;16.30;2.38;;;12.50;99.90;;;;;;5008083;28;20072;-77
2022/09/02 11:05:27;;;;;;;9.20;3.15;;;12.60;99.90;;;;;;5048284;28;20135;-74
2022/09/02 11:08:08;;;;;;;15.77;2.13;;;12.60;99.90;;;;;;5052351;28;20075;-73
2022/09/02 11:10:55;;;;;;;7.60;1.88;;;12.60;99.90;;;;;;5052074;28;20028;-76
2022/09/02 11:13:43;;;;;;;8.35;1.60;;;12.60;99.90;;;;;;5040491;28;20032;-76
2022/09/02 11:16:50;;;;;;;6.72;2.20;;;12.60;99.90;;;;;;5050020;28;20037;-76
2022/09/02 11:19:41;;;;;;;9.32;2.38;;;12.60;99.90;;;;;;5009273;28;20359;-75
2022/09/02 11:22:21;;;;;;;11.77;2.00;;;12.60;99.90;;;;;;5050706;28;20048;-77
2022/09/02 11:25:09;;;;;;;13.55;2.65;;;12.60;99.90;;;;;;5034642;28;20445;-76
2022/09/02 11:27:50;;;;;;;5.70;1.50;;;12.60;99.90;;;;;;5049040;28;20185;-77
2022/09/02 11:30:34;;;;;;;10.05;2.28;;;12.60;99.90;;;;;;5034064;28;20346;-73
2022/09/02 11:33:27;;;;;;;7.10;2.05;;;12.60;99.90;;;;;;5052654;28;20489;-75
2022/09/02 11:35:57;;;;;;;11.48;2.42;;;12.60;99.90;;;;;;5050702;28;20104;-74
2022/09/02 11:38:52;;;;;;;9.00;2.45;;;12.60;99.90;;;;;;5050487;28;20108;-75
2022/09/02 11:41:25;;;;;;;11.90;3.05;;;12.60;99.90;;;;;;5050113;28;20908;-74
2022/09/02 11:44:16;;;;;;;14.80;2.67;;;12.60;99.90;;;;;;5054708;28;20114;-76
2022/09/02 11:47:28;;;;;;;15.65;2.92;;;12.60;99.90;;;;;;5055429;28;20107;-80
2022/09/02 11:50:22;;;;;;;11.88;2.40;;;12.60;99.90;;;;;;5048839;28;20064;-76
2022/09/02 11:53:04;;;;;;;13.63;2.08;;;12.70;99.90;;;;;;5055482;28;20028;-74
2022/09/02 11:55:42;;;;;;;13.23;3.22;;;12.70;99.90;;;;;;5051550;28;20067;-75
2022/09/02 11:58:10;;;;;;;8.63;1.73;;;12.70;99.90;;;;;;5055388;28;20052;-76
2022/09/02 12:01:00;;;;;;;9.25;1.85;;;12.60;99.90;;;;;;5052399;28;20039;-76
2022/09/02 12:03:30;;;;;;;12.77;2.35;;;12.60;99.90;;;;;;5033060;28;20115;-77
2022/09/02 12:06:10;;;;;;;10.98;2.55;;;12.60;99.90;;;;;;5055223;28;20021;-78
2022/09/02 12:08:42;;;;;;;13.02;2.67;;;12.70;99.90;;;;;;5036636;28;20041;-77
2022/09/02 12:11:30;;;;;;;13.68;2.50;;;12.70;99.90;;;;;;5051549;28;20025;-78
2022/09/02 12:13:58;;;;;;;11.38;1.98;;;12.70;99.90;;;;;;5018805;28;20108;-78
2022/09/02 12:16:29;;;;;;;15.52;2.50;;;12.70;99.90;;;;;;5053388;28;20048;-77
2022/09/02 12:18:57;;;;;;;7.85;1.83;;;12.70;99.90;;;;;;5052915;28;20025;-77
2022/09/02 12:21:30;;;;;;;10.65;2.13;;;12.70;99.90;;;;;;5052716;28;20029;-73
2022/09/02 12:23:57;;;;;;;12.13;2.42;;;12.70;99.90;;;;;;5052426;28;20030;-74
2022/09/02 12:26:27;;;;;;;7.90;1.90;;;12.70;99.90;;;;;;5053441;28;20033;-78
2022/09/02 12:29:23;;;;;;;18.92;2.50;;;12.70;99.90;;;;;;5053564;28;20009;-77
2022/09/02 12:31:52;;;;;;;9.20;2.88;;;12.60;99.90;;;;;;5051233;28;20124;-77
2022/09/02 12:34:22;;;;;;;12.57;3.45;;;12.70;99.90;;;;;;5050083;28;20025;-75
2022/09/02 12:36:57;;;;;;;13.68;2.50;;;12.70;99.90;;;;;;5053020;28;20537;-76
2022/09/02 12:39:26;;;;;;;13.25;1.85;;;12.70;99.90;;;;;;5035393;28;20025;-76
2022/09/02 12:42:11;;;;;;;13.45;1.95;;;12.70;99.90;;;;;;5052988;28;20029;-77
2022/09/02 12:45:11;;;;;;;8.30;3.20;;;12.60;99.90;;;;;;5051614;28;20017;-77
2022/09/02 12:47:53;;;;;;;7.90;1.90;;;12.60;99.90;;;;;;5048887;28;20104;-79
2022/09/02 12:50:49;;;;;;;13.57;3.20;;;12.70;99.90;;;;;;5052152;28;20021;-78
2022/09/02 12:53:37;;;;;;;7.25;2.03;;;12.70;99.90;;;;;;5051553;28;20036;-77
2022/09/02 12:56:23;;;;;;;14.85;2.97;;;12.80;99.90;;;;;;5042952;28;20096;-78
2022/09/02 12:58:55;;;;;;;6.97;1.73;;;12.80;99.90;;;;;;5042261;28;20021;-79
2022/09/02 13:01:58;;;;;;;15.70;2.45;;;12.80;99.90;;;;;;5044991;28;20033;-74
2022/09/02 13:04:39;;;;;;;11.05;3.25;;;12.80;99.90;;;;;;5039691;28;20048;-78
2022/09/02 13:07:41;;;;;;;14.32;2.78;;;12.80;99.90;;;;;;5043036;28;20056;-78
2022/09/02 13:10:27;;;;;;;15.98;2.95;;;12.70;99.90;;;;;;5045113;28;20045;-77
2022/09/02 13:13:40;;;;;;;9.40;2.08;;;12.60;99.90;;;;;;5045063;28;20031;-77
2022/09/02 13:16:23;;;;;;;16.25;2.22;;;12.50;99.90;;;;;;5043507;28;20481;-74
2022/09/02 13:19:07;;;;;;;17.75;2.50;;;12.50;99.90;;;;;;5044195;28;20081;-78